Hauptseite
METAR-TAF:

METAR-TAF

Flughäfen :

Holzdorf, Deutschland

Fliegerhorst Holzdorf

Breite: 51-46N, Länge: 013-11E, Höhe: 79 m

Beobachtung

Neuester Wetterbericht von vor 57 Minuten, um 23:20 UTC
Wind 5 kt aus Nordost
Temperatur 14°C
Luftfeuchtigkeit 77%
Luftdruck 1007 hPa
Sichtweite 10 km oder mehr
Leicht bewölkt in der Höhe von 12000 ft

METAR: ETSH 272320Z 05005KT 9999 FEW120 14/10 Q1007 BLU+

Zeit: 02:17 (00:17 UTC)

Prognose

Neuester Wetterbericht von vor 9 Stunden und 51 Minuten, um 14:26 UTC
Gültige Prognose vom 27 um 14 UTC bis 27 um 23 UTC
Wind 7 kt aus Ost
Sichtweite: 1500 m
Leicht bewölkt in der Höhe von 5000 ft
Durchbrochene Bewölkung in der Höhe von 12000 ft

TAF: ETSH 271426Z 2714/2723 09007KT 9999 NSW FEW050 BKN120 CANCEL 1500

Wetterbeobachtungen und Prognosen von mehr als 4000 Flughäfen (METAR und TAF Bericht).

Die verfügbaren Stationen werden durch gelbe und rote Markierungen auf der Karte dargestellt.

Führen Sie die Maus auf sie, um den Namen der Station zu sehen.

Darauf klicken, um die Beobachtung von Wetterbeobachtungen und Prognosen zu sehen.

Um die Karte zu ändern : klicken Sie auf den grünen Tasten mit einem schwarzen Kreuz Zum Vergrößern, auf den grünen Button mit einem Gedankenstrich zu verkleinern, oder auf die grünen Pfeile für benachbarte Karten.


METAR-TAF: